createdAt,value
2019-01-14T00:01:29.915Z,99919.56
2019-01-14T00:03:59.047Z,99935.05
2019-01-14T00:06:28.180Z,99935.08
2019-01-14T00:08:57.458Z,99950.56
2019-01-14T00:11:26.614Z,99947.05
2019-01-14T00:13:55.779Z,99950.56
2019-01-14T00:16:24.956Z,99953.07
2019-01-14T00:18:54.304Z,99952.88
2019-01-14T00:21:23.468Z,99957.80
2019-01-14T00:23:53.033Z,99964.66
2019-01-14T00:26:22.165Z,99967.89
2019-01-14T00:28:51.322Z,99969.84
2019-01-14T00:31:20.631Z,99969.94
2019-01-14T00:33:49.980Z,99979.39
2019-01-14T00:36:19.112Z,99980.96
2019-01-14T00:38:48.249Z,99988.66
2019-01-14T00:41:17.657Z,99985.04
2019-01-14T00:43:46.832Z,99986.16
2019-01-14T00:46:15.965Z,99990.53
2019-01-14T00:48:45.213Z,99995.98
2019-01-14T00:51:14.643Z,99999.79
2019-01-14T00:53:43.809Z,100004.52
2019-01-14T00:56:12.994Z,100006.10
2019-01-14T00:58:42.158Z,100013.77
2019-01-14T01:01:11.290Z,100027.95
2019-01-14T01:03:40.469Z,100025.36
2019-01-14T01:06:09.677Z,100038.71
2019-01-14T01:08:38.826Z,100043.16
2019-01-14T01:11:07.951Z,100049.73
2019-01-14T01:13:37.491Z,100047.00
2019-01-14T01:16:06.643Z,100057.73
2019-01-14T01:18:35.878Z,100051.07
2019-01-14T01:21:05.051Z,100054.76
2019-01-14T01:23:34.217Z,100068.66
2019-01-14T01:26:03.349Z,100072.34
2019-01-14T01:28:32.514Z,100075.14
2019-01-14T01:31:01.696Z,100087.19
2019-01-14T01:33:30.959Z,100093.59
2019-01-14T01:36:00.078Z,100101.45
2019-01-14T01:38:29.373Z,100100.37
2019-01-14T01:40:58.554Z,100106.10
2019-01-14T01:43:27.694Z,100108.03
2019-01-14T01:45:56.959Z,100113.13
2019-01-14T01:48:26.164Z,100121.46
2019-01-14T01:50:55.350Z,100121.63
2019-01-14T01:53:24.480Z,100128.61
2019-01-14T01:55:53.618Z,100142.20
2019-01-14T01:58:22.803Z,100151.66
2019-01-14T02:00:51.929Z,100160.73
2019-01-14T02:03:21.068Z,100159.73
2019-01-14T02:05:50.732Z,100168.27
2019-01-14T02:08:19.911Z,100171.78
2019-01-14T02:10:49.038Z,100180.56
2019-01-14T02:13:18.203Z,100196.45
2019-01-14T02:15:47.331Z,100198.47
2019-01-14T02:18:16.480Z,100203.36
2019-01-14T02:20:45.657Z,100202.23
2019-01-14T02:23:14.799Z,100212.59
2019-01-14T02:25:44.006Z,100217.24
2019-01-14T02:28:13.427Z,100216.33
2019-01-14T02:30:42.595Z,100221.05
2019-01-14T02:33:11.739Z,100226.78
2019-01-14T02:35:41.009Z,100229.83
2019-01-14T02:38:10.131Z,100230.59
2019-01-14T02:40:39.433Z,100232.72
2019-01-14T02:43:08.563Z,100238.69
2019-01-14T02:45:37.813Z,100251.95
2019-01-14T02:48:06.998Z,100255.13
2019-01-14T02:50:37.232Z,100258.17
2019-01-14T02:53:06.359Z,100264.96
2019-01-14T02:55:35.501Z,100257.14
2019-01-14T02:58:04.865Z,100257.64
2019-01-14T03:00:34.004Z,100266.41
2019-01-14T03:03:03.242Z,100268.70
2019-01-14T03:05:32.379Z,100265.73
2019-01-14T03:08:02.242Z,100271.52
2019-01-14T03:10:31.736Z,100276.97
2019-01-14T03:13:00.891Z,100282.45
2019-01-14T03:15:30.044Z,100280.97
2019-01-14T03:17:59.321Z,100291.60
2019-01-14T03:20:28.554Z,100295.45
2019-01-14T03:22:57.700Z,100297.67
2019-01-14T03:25:26.905Z,100302.55
2019-01-14T03:27:56.083Z,100296.48
2019-01-14T03:30:25.284Z,100291.03
2019-01-14T03:32:54.428Z,100305.09
2019-01-14T03:35:23.644Z,100301.73
2019-01-14T03:37:52.828Z,100310.81
2019-01-14T03:40:21.995Z,100308.22
2019-01-14T03:42:51.157Z,100309.28
2019-01-14T03:45:20.302Z,100311.64
2019-01-14T03:47:49.484Z,100312.72
2019-01-14T03:50:22.016Z,100320.48
2019-01-14T03:52:51.330Z,100314.92
2019-01-14T03:55:20.462Z,100318.73
2019-01-14T03:57:49.763Z,100326.20
2019-01-14T04:00:22.410Z,100333.89
2019-01-14T04:02:51.899Z,100336.11
2019-01-14T04:05:21.027Z,100336.11
2019-01-14T04:07:50.322Z,100341.30
2019-01-14T04:10:19.524Z,100339.75
2019-01-14T04:12:48.767Z,100346.55
2019-01-14T04:15:19.511Z,100344.88
2019-01-14T04:17:48.670Z,100356.16
2019-01-14T04:20:18.963Z,100348.22
2019-01-14T04:22:49.095Z,100356.14
2019-01-14T04:25:18.398Z,100347.85
2019-01-14T04:27:47.529Z,100349.97
2019-01-14T04:30:23.924Z,100347.38
2019-01-14T04:32:53.107Z,100354.33
2019-01-14T04:35:23.458Z,100350.83
2019-01-14T04:37:52.823Z,100362.94
2019-01-14T04:40:22.528Z,100368.20
2019-01-14T04:42:51.712Z,100372.83
2019-01-14T04:45:20.864Z,100371.53
2019-01-14T04:47:50.014Z,100374.20
2019-01-14T04:50:22.204Z,100378.54
2019-01-14T04:52:51.381Z,100381.89
2019-01-14T04:55:20.521Z,100379.30
2019-01-14T04:57:49.652Z,100388.97
2019-01-14T05:00:25.805Z,100393.77
2019-01-14T05:02:54.953Z,100394.98
2019-01-14T05:05:24.345Z,100404.80
2019-01-14T05:07:53.706Z,100408.25
2019-01-14T05:10:23.076Z,100409.00
2019-01-14T05:12:52.215Z,100417.53
2019-01-14T05:15:21.381Z,100418.30
2019-01-14T05:17:50.687Z,100422.86
2019-01-14T05:20:23.419Z,100429.96
2019-01-14T05:22:53.010Z,100441.69
2019-01-14T05:25:22.136Z,100443.82
2019-01-14T05:27:51.312Z,100435.73
2019-01-14T05:30:21.804Z,100436.44
2019-01-14T05:32:50.942Z,100447.91
2019-01-14T05:35:20.112Z,100443.75
2019-01-14T05:37:49.291Z,100448.61
2019-01-14T05:40:22.209Z,100454.25
2019-01-14T05:42:51.350Z,100451.52
2019-01-14T05:45:20.523Z,100464.16
2019-01-14T05:47:49.642Z,100460.72
2019-01-14T05:50:18.830Z,100464.16
2019-01-14T05:52:48.033Z,100471.33
2019-01-14T05:55:17.371Z,100476.72
2019-01-14T05:57:46.659Z,100479.05
2019-01-14T06:00:43.861Z,100482.89
2019-01-14T06:03:13.047Z,100493.81
2019-01-14T06:05:42.193Z,100491.03
2019-01-14T06:08:11.387Z,100495.89
2019-01-14T06:10:40.573Z,100497.00
2019-01-14T06:13:09.707Z,100492.20
2019-01-14T06:15:38.936Z,100495.91
2019-01-14T06:18:08.129Z,100500.79
2019-01-14T06:20:37.338Z,100502.67
2019-01-14T06:23:06.504Z,100515.70
2019-01-14T06:25:35.690Z,100509.67
2019-01-14T06:28:06.465Z,100514.53
2019-01-14T06:30:35.749Z,100516.72
2019-01-14T06:33:05.023Z,100522.58
2019-01-14T06:35:34.160Z,100531.44
2019-01-14T06:38:03.437Z,100539.80
2019-01-14T06:40:32.778Z,100552.73
2019-01-14T06:43:02.042Z,100548.39
2019-01-14T06:45:31.223Z,100557.45
2019-01-14T06:48:00.353Z,100557.73
2019-01-14T06:50:29.911Z,100565.25
2019-01-14T06:52:59.061Z,100569.20
2019-01-14T06:55:28.229Z,100577.04
2019-01-14T06:57:57.410Z,100586.36
2019-01-14T07:00:29.961Z,100601.06
2019-01-14T07:02:59.215Z,100615.02
2019-01-14T07:05:28.377Z,100619.83
2019-01-14T07:07:59.918Z,100623.41
2019-01-14T07:10:30.844Z,100641.41
2019-01-14T07:13:00.009Z,100640.08
2019-01-14T07:15:29.135Z,100641.16
2019-01-14T07:17:58.426Z,100635.88
2019-01-14T07:20:27.704Z,100640.38
2019-01-14T07:22:56.814Z,100640.95
2019-01-14T07:25:25.981Z,100642.12
2019-01-14T07:27:55.233Z,100652.19
2019-01-14T07:30:26.299Z,100660.79
2019-01-14T07:32:55.445Z,100663.88
2019-01-14T07:35:24.741Z,100660.34
2019-01-14T07:37:54.031Z,100668.61
2019-01-14T07:40:23.161Z,100664.33
2019-01-14T07:42:52.304Z,100669.50
2019-01-14T07:45:21.471Z,100678.16
2019-01-14T07:47:50.597Z,100687.44
2019-01-14T07:50:21.393Z,100700.36
2019-01-14T07:52:50.627Z,100696.33
2019-01-14T07:55:19.801Z,100691.16
2019-01-14T07:57:48.982Z,100669.80
2019-01-14T08:00:23.519Z,100686.55
2019-01-14T08:02:52.870Z,100684.02
2019-01-14T08:05:22.233Z,100693.00
2019-01-14T08:07:52.259Z,100691.03
2019-01-14T08:10:21.403Z,100701.61
2019-01-14T08:12:50.529Z,100707.09
2019-01-14T08:15:21.617Z,100722.31
2019-01-14T08:17:50.873Z,100729.17
2019-01-14T08:20:20.156Z,100731.05
2019-01-14T08:22:49.308Z,100744.72
2019-01-14T08:25:18.650Z,100750.95
2019-01-14T08:27:47.824Z,100769.56
2019-01-14T08:30:28.405Z,100776.59
2019-01-14T08:32:57.537Z,100774.56
2019-01-14T08:35:26.696Z,100796.82
2019-01-14T08:37:55.944Z,100797.68
2019-01-14T08:40:25.088Z,100788.96
2019-01-14T08:42:54.445Z,100786.64
2019-01-14T08:45:23.632Z,100797.21
2019-01-14T08:47:52.774Z,100794.83
2019-01-14T08:50:22.428Z,100795.12
2019-01-14T08:52:52.094Z,100804.77
2019-01-14T08:55:21.231Z,100793.14
2019-01-14T08:57:54.394Z,100796.61
2019-01-14T09:00:26.413Z,100800.34
2019-01-14T09:02:55.555Z,100800.39
2019-01-14T09:05:24.702Z,100802.72
2019-01-14T09:07:53.823Z,100803.34
2019-01-14T09:10:25.168Z,100800.09
2019-01-14T09:12:54.334Z,100801.67
2019-01-14T09:15:23.441Z,100802.47
2019-01-14T09:17:52.624Z,100808.78
2019-01-14T09:20:24.915Z,100807.70
2019-01-14T09:22:54.093Z,100813.96
2019-01-14T09:25:23.261Z,100812.97
2019-01-14T09:27:52.445Z,100805.86
2019-01-14T09:30:29.345Z,100815.45
2019-01-14T09:32:58.559Z,100817.25
2019-01-14T09:35:27.731Z,100818.89
2019-01-14T09:37:56.884Z,100824.98
2019-01-14T09:40:26.286Z,100816.14
2019-01-14T09:42:55.495Z,100822.05
2019-01-14T09:45:24.642Z,100826.56
2019-01-14T09:47:53.821Z,100826.95
2019-01-14T09:50:23.120Z,100829.20
2019-01-14T09:52:52.379Z,100834.23
2019-01-14T09:55:21.575Z,100837.33
2019-01-14T09:57:50.725Z,100840.66
2019-01-14T10:00:23.840Z,100843.37
2019-01-14T10:02:55.555Z,100841.03
2019-01-14T10:05:24.253Z,100838.88
2019-01-14T10:07:53.388Z,100847.78
2019-01-14T10:10:22.564Z,100848.73
2019-01-14T10:12:51.760Z,100851.36
2019-01-14T10:15:23.016Z,100865.80
2019-01-14T10:18:07.614Z,100860.39
2019-01-14T10:20:36.885Z,100860.52
2019-01-14T10:23:06.081Z,100859.21
2019-01-14T10:25:36.038Z,100860.84
2019-01-14T10:28:05.197Z,100872.94
2019-01-14T10:30:34.385Z,100871.53
2019-01-14T10:33:03.537Z,100873.16
2019-01-14T10:35:32.907Z,100881.83
2019-01-14T10:38:02.047Z,100879.13
2019-01-14T10:40:31.242Z,100882.84
2019-01-14T10:43:00.420Z,100880.91
2019-01-14T10:45:29.568Z,100889.12
2019-01-14T10:47:59.001Z,100889.45
2019-01-14T10:50:28.135Z,100892.84
2019-01-14T10:52:57.299Z,100892.18
2019-01-14T10:55:26.598Z,100894.41
2019-01-14T10:57:55.725Z,100889.06
2019-01-14T11:00:28.351Z,100901.22
2019-01-14T11:02:58.413Z,100911.12
2019-01-14T11:05:31.806Z,100904.59
2019-01-14T11:08:02.713Z,100901.91
2019-01-14T11:10:32.178Z,100895.25
2019-01-14T11:13:01.384Z,100892.50
2019-01-14T11:15:30.522Z,100898.60
2019-01-14T11:17:59.704Z,100900.19
2019-01-14T11:20:30.694Z,100890.48
2019-01-14T11:23:01.091Z,100881.82
2019-01-14T11:25:30.285Z,100898.22
2019-01-14T11:27:59.832Z,100884.80
2019-01-14T11:30:31.102Z,100895.96
2019-01-14T11:33:00.307Z,100892.93
2019-01-14T11:35:29.869Z,100898.67
2019-01-14T11:37:59.499Z,100889.37
2019-01-14T11:40:35.388Z,100904.92
2019-01-14T11:43:04.572Z,100903.69
2019-01-14T11:45:33.709Z,100904.70
2019-01-14T11:48:02.908Z,100912.28
2019-01-14T11:50:32.310Z,100899.34
2019-01-14T11:53:01.456Z,100904.39
2019-01-14T11:55:30.602Z,100913.58
2019-01-14T11:58:00.291Z,100910.50
2019-01-14T12:00:36.248Z,100928.20
2019-01-14T12:03:00.301Z,100920.92
2019-01-14T12:05:29.447Z,100939.81
2019-01-14T12:07:58.612Z,100935.22
2019-01-14T12:10:27.846Z,100949.08
2019-01-14T12:12:57.026Z,100972.39
2019-01-14T12:15:27.728Z,100992.55
2019-01-14T12:17:56.927Z,100968.38
2019-01-14T12:20:26.074Z,100955.30
2019-01-14T12:22:55.363Z,100958.53
2019-01-14T12:25:24.533Z,100946.52
2019-01-14T12:27:53.708Z,100954.79
2019-01-14T12:30:28.876Z,100962.75
2019-01-14T12:32:58.005Z,100959.83
2019-01-14T12:35:27.177Z,100962.25
2019-01-14T12:37:56.301Z,100966.48
2019-01-14T12:40:25.450Z,100970.46
2019-01-14T12:42:54.664Z,100971.39
2019-01-14T12:45:24.000Z,100975.83
2019-01-14T12:47:53.133Z,100971.56
2019-01-14T12:50:22.993Z,100970.56
2019-01-14T12:52:52.136Z,100973.34
2019-01-14T12:55:21.300Z,100982.25
2019-01-14T12:57:50.464Z,100983.20
2019-01-14T13:00:22.285Z,100972.42
2019-01-14T13:02:51.474Z,100968.39
2019-01-14T13:05:21.052Z,100966.63
2019-01-14T13:07:50.199Z,100972.80
2019-01-14T13:10:19.424Z,100975.91
2019-01-14T13:12:48.680Z,100975.31
2019-01-14T13:15:20.338Z,100976.94
2019-01-14T13:17:49.915Z,100987.48
2019-01-14T13:20:19.884Z,100992.11
2019-01-14T13:22:49.066Z,100992.52
2019-01-14T13:25:18.427Z,100990.20
2019-01-14T13:27:47.638Z,101000.22
2019-01-14T13:30:24.028Z,101013.16
2019-01-14T13:32:53.221Z,101004.59
2019-01-14T13:35:22.434Z,101009.56
2019-01-14T13:37:51.768Z,101011.07
2019-01-14T13:40:20.973Z,101009.66
2019-01-14T13:42:50.172Z,101010.02
2019-01-14T13:45:20.354Z,101028.91
2019-01-14T13:47:49.796Z,101030.09
2019-01-14T13:50:21.196Z,101048.36
2019-01-14T13:52:50.351Z,101042.27
2019-01-14T13:55:19.589Z,101052.70
2019-01-14T13:57:48.731Z,101041.25
2019-01-14T14:00:24.087Z,101056.19
2019-01-14T14:02:53.788Z,101042.27
2019-01-14T14:05:23.269Z,101056.91
2019-01-14T14:07:52.580Z,101060.23
2019-01-14T14:10:23.835Z,101065.38
2019-01-14T14:12:52.970Z,101067.85
2019-01-14T14:15:22.343Z,101088.59
2019-01-14T14:17:51.525Z,101080.36
2019-01-14T14:20:22.055Z,101085.59
2019-01-14T14:22:51.253Z,101091.92
2019-01-14T14:25:20.378Z,101087.46
2019-01-14T14:27:49.574Z,101094.56
2019-01-14T14:30:31.204Z,101097.10
2019-01-14T14:33:00.373Z,101089.77
2019-01-14T14:35:29.535Z,101098.17
2019-01-14T14:38:01.184Z,101095.91
2019-01-14T14:40:29.905Z,101099.75
2019-01-14T14:42:59.047Z,101103.81
2019-01-14T14:45:28.236Z,101093.83
2019-01-14T14:47:57.379Z,101105.44
2019-01-14T14:50:26.569Z,101107.53
2019-01-14T14:52:55.905Z,101103.58
2019-01-14T14:55:25.052Z,101113.95
2019-01-14T14:57:54.379Z,101112.74
2019-01-14T15:00:25.024Z,101116.11
2019-01-14T15:02:54.247Z,101124.86
2019-01-14T15:05:23.490Z,101131.66
2019-01-14T15:07:52.747Z,101132.22
2019-01-14T15:10:23.411Z,101128.64
2019-01-14T15:12:52.797Z,101136.07
2019-01-14T15:15:23.874Z,101147.28
2019-01-14T15:17:53.034Z,101143.84
2019-01-14T15:20:24.135Z,101144.11
2019-01-14T15:22:53.354Z,101139.88
2019-01-14T15:25:22.528Z,101143.77
2019-01-14T15:27:51.687Z,101149.95
2019-01-14T15:30:24.754Z,101157.27
2019-01-14T15:32:53.918Z,101155.92
2019-01-14T15:35:23.102Z,101161.64
2019-01-14T15:37:52.236Z,101155.97
2019-01-14T15:40:24.090Z,101161.98
2019-01-14T15:42:53.221Z,101171.67
2019-01-14T15:45:23.891Z,101168.52
2019-01-14T15:47:53.084Z,101182.30
2019-01-14T15:50:22.310Z,101182.63
2019-01-14T15:52:51.439Z,101183.97
2019-01-14T15:55:23.288Z,101191.29
2019-01-14T15:57:52.625Z,101199.45
2019-01-14T16:00:23.587Z,101204.39
2019-01-14T16:02:54.456Z,101211.00
2019-01-14T16:05:23.741Z,101213.59
2019-01-14T16:07:52.939Z,101223.84
2019-01-14T16:10:24.267Z,101224.13
2019-01-14T16:12:53.672Z,101222.83
2019-01-14T16:15:23.315Z,101228.17
2019-01-14T16:17:52.598Z,101230.72
2019-01-14T16:20:23.997Z,101230.81
2019-01-14T16:22:53.599Z,101239.82
2019-01-14T16:25:22.793Z,101241.07
2019-01-14T16:27:51.926Z,101247.94
2019-01-14T16:30:26.313Z,101252.76
2019-01-14T16:32:55.492Z,101263.42
2019-01-14T16:35:24.707Z,101260.83
2019-01-14T16:37:54.286Z,101264.72
2019-01-14T16:40:23.534Z,101258.34
2019-01-14T16:42:52.707Z,101262.75
2019-01-14T16:45:24.713Z,101254.50
2019-01-14T16:47:53.979Z,101246.12
2019-01-14T16:50:23.108Z,101261.49
2019-01-14T16:52:52.636Z,101268.19
2019-01-14T16:55:40.863Z,101267.98
2019-01-14T16:58:10.063Z,101282.09
2019-01-14T17:00:39.247Z,101277.73
2019-01-14T17:03:08.433Z,101279.51
2019-01-14T17:05:37.680Z,101283.30
2019-01-14T17:08:06.788Z,101290.17
2019-01-14T17:10:36.032Z,101285.48
2019-01-14T17:13:05.406Z,101288.56
2019-01-14T17:15:34.546Z,101281.53
2019-01-14T17:18:03.914Z,101281.00
2019-01-14T17:20:33.124Z,101287.27
2019-01-14T17:23:02.264Z,101285.65
2019-01-14T17:25:31.539Z,101300.27
2019-01-14T17:28:00.675Z,101297.94
2019-01-14T17:30:29.964Z,101302.39
2019-01-14T17:32:59.134Z,101299.04
2019-01-14T17:35:28.383Z,101300.57
2019-01-14T17:37:57.548Z,101306.88
2019-01-14T17:40:32.492Z,101309.82
2019-01-14T17:42:57.988Z,101313.73
2019-01-14T17:45:27.137Z,101315.84
2019-01-14T17:47:56.356Z,101319.64
2019-01-14T17:50:28.841Z,101327.44
2019-01-14T17:52:57.974Z,101330.38
2019-01-14T17:55:27.261Z,101326.66
2019-01-14T17:57:56.449Z,101329.66
2019-01-14T18:00:26.788Z,101332.31
2019-01-14T18:02:55.932Z,101335.27
2019-01-14T18:05:25.105Z,101332.06
2019-01-14T18:07:54.261Z,101332.66
2019-01-14T18:10:23.400Z,101338.72
2019-01-14T18:12:52.595Z,101339.31
2019-01-14T18:15:21.800Z,101346.18
2019-01-14T18:17:50.940Z,101351.53
2019-01-14T18:20:20.950Z,101349.47
2019-01-14T18:22:50.254Z,101354.78
2019-01-14T18:25:19.585Z,101359.36
2019-01-14T18:27:48.759Z,101367.81
2019-01-14T18:30:19.673Z,101363.63
2019-01-14T18:32:48.881Z,101370.94
2019-01-14T18:35:18.078Z,101374.23
2019-01-14T18:37:47.369Z,101370.66
2019-01-14T18:40:19.202Z,101378.03
2019-01-14T18:42:48.528Z,101377.52
2019-01-14T18:45:19.852Z,101366.78
2019-01-14T18:47:49.457Z,101374.05
2019-01-14T18:50:21.293Z,101381.84
2019-01-14T18:52:50.489Z,101379.52
2019-01-14T18:55:19.659Z,101380.19
2019-01-14T18:57:49.247Z,101386.98
2019-01-14T19:00:20.786Z,101393.25
2019-01-14T19:02:50.047Z,101390.00
2019-01-14T19:05:20.322Z,101397.60
2019-01-14T19:07:49.932Z,101399.19
2019-01-14T19:10:19.339Z,101394.05
2019-01-14T19:12:48.708Z,101394.05
2019-01-14T19:15:19.855Z,101389.41
2019-01-14T19:17:49.546Z,101394.83
2019-01-14T19:20:21.198Z,101412.44
2019-01-14T19:22:50.636Z,101402.91
2019-01-14T19:25:19.912Z,101423.16
2019-01-14T19:27:49.095Z,101416.66
2019-01-14T19:30:19.357Z,101413.59
2019-01-14T19:32:48.583Z,101414.95
2019-01-14T19:35:17.884Z,101423.60
2019-01-14T19:37:47.102Z,101440.11
2019-01-14T19:40:19.066Z,101435.05
2019-01-14T19:42:48.471Z,101434.72
2019-01-14T19:45:19.180Z,101445.06
2019-01-14T19:47:49.267Z,101446.87
2019-01-14T19:50:23.565Z,101445.35
2019-01-14T19:52:55.051Z,101451.41
2019-01-14T19:55:24.437Z,101451.74
2019-01-14T19:57:54.174Z,101447.90
2019-01-14T20:00:28.605Z,101453.14
2019-01-14T20:02:58.460Z,101467.39
2019-01-14T20:05:27.807Z,101464.30
2019-01-14T20:07:58.100Z,101462.52
2019-01-14T20:10:28.828Z,101463.41
2019-01-14T20:12:58.795Z,101469.50
2019-01-14T20:15:28.133Z,101468.24
2019-01-14T20:17:57.403Z,101472.56
2019-01-14T20:20:29.031Z,101477.22
2019-01-14T20:22:58.574Z,101474.59
2019-01-14T20:25:28.350Z,101474.09
2019-01-14T20:27:57.577Z,101473.09
2019-01-14T20:30:26.875Z,101477.59
2019-01-14T20:32:56.534Z,101476.97
2019-01-14T20:35:25.886Z,101476.12
2019-01-14T20:37:55.200Z,101472.25
2019-01-14T20:40:24.565Z,101479.08
2019-01-14T20:42:53.826Z,101480.33
2019-01-14T20:45:23.274Z,101481.11
2019-01-14T20:47:52.485Z,101485.36
2019-01-14T20:50:23.025Z,101492.27
2019-01-14T20:52:52.659Z,101486.58
2019-01-14T20:55:21.977Z,101486.14
2019-01-14T20:57:51.304Z,101489.86
2019-01-14T21:00:23.946Z,101488.67
2019-01-14T21:02:53.243Z,101484.69
2019-01-14T21:05:23.609Z,101480.67
2019-01-14T21:07:53.201Z,101481.30
2019-01-14T21:10:22.386Z,101495.41
2019-01-14T21:12:51.543Z,101489.30
2019-01-14T21:15:20.947Z,101488.92
2019-01-14T21:17:50.575Z,101484.70
2019-01-14T21:20:22.070Z,101493.78
2019-01-14T21:22:51.701Z,101487.43
2019-01-14T21:25:20.976Z,101486.27
2019-01-14T21:27:50.294Z,101491.68
2019-01-14T21:30:21.824Z,101489.95
2019-01-14T21:32:51.122Z,101489.41
2019-01-14T21:35:20.895Z,101492.09
2019-01-14T21:37:51.412Z,101485.35
2019-01-14T21:40:20.566Z,101487.94
2019-01-14T21:42:49.749Z,101499.82
2019-01-14T21:45:18.940Z,101498.22
2019-01-14T21:47:48.146Z,101498.84
2019-01-14T21:50:18.954Z,101496.83
2019-01-14T21:52:48.100Z,101504.08
2019-01-14T21:55:19.549Z,101513.67
2019-01-14T21:57:49.087Z,101515.78
2019-01-14T22:00:23.486Z,101518.55
2019-01-14T22:02:52.731Z,101524.59
2019-01-14T22:05:22.110Z,101533.86
2019-01-14T22:07:51.488Z,101534.25
2019-01-14T22:10:26.886Z,101532.02
2019-01-14T22:12:56.053Z,101540.27
2019-01-14T22:15:25.366Z,101533.31
2019-01-14T22:17:54.934Z,101535.53
2019-01-14T22:20:29.044Z,101541.79
2019-01-14T22:22:58.548Z,101525.73
2019-01-14T22:25:27.994Z,101525.02
2019-01-14T22:27:57.219Z,101522.97
2019-01-14T22:30:28.855Z,101525.11
2019-01-14T22:32:58.144Z,101533.77
2019-01-14T22:35:27.287Z,101536.38
2019-01-14T22:37:56.565Z,101528.25
2019-01-14T22:40:25.991Z,101528.52
2019-01-14T22:42:55.153Z,101529.36
2019-01-14T22:45:24.345Z,101522.91
2019-01-14T22:47:53.714Z,101524.92
2019-01-14T22:50:23.110Z,101526.75
2019-01-14T22:52:52.350Z,101517.14
2019-01-14T22:55:21.547Z,101521.84
2019-01-14T22:57:50.699Z,101525.66
2019-01-14T23:00:55.214Z,101516.95
2019-01-14T23:03:24.405Z,101517.84
2019-01-14T23:05:53.534Z,101517.49
2019-01-14T23:08:23.123Z,101518.75
2019-01-14T23:10:52.374Z,101517.43
2019-01-14T23:13:21.554Z,101522.59
2019-01-14T23:15:50.720Z,101526.44
2019-01-14T23:18:19.865Z,101518.72
2019-01-14T23:20:49.039Z,101517.43
2019-01-14T23:23:18.424Z,101518.31
2019-01-14T23:25:47.699Z,101520.45
2019-01-14T23:28:16.900Z,101529.69
2019-01-14T23:30:46.039Z,101525.34
2019-01-14T23:33:15.239Z,101528.83
2019-01-14T23:35:44.393Z,101531.63
2019-01-14T23:38:13.604Z,101536.13
2019-01-14T23:40:42.948Z,101531.90
2019-01-14T23:43:12.078Z,101531.98
2019-01-14T23:45:41.336Z,101538.09
2019-01-14T23:48:10.501Z,101532.81
2019-01-14T23:50:39.958Z,101542.87
2019-01-14T23:53:09.176Z,101533.69
2019-01-14T23:55:38.586Z,101526.83
2019-01-14T23:59:05.260Z,101525.56
